createdAt,value
2023-01-08T12:19:45.434Z,49.50
2023-01-08T12:22:12.296Z,38.70
2023-01-08T12:24:48.537Z,42.90
2023-01-08T12:27:56.456Z,75.60
2023-01-08T12:30:36.597Z,78.90
2023-01-08T12:33:12.671Z,68.30
2023-01-08T12:35:41.713Z,46.20
2023-01-08T12:40:44.087Z,48.10
2023-01-08T12:43:18.994Z,53.70
2023-01-08T12:45:46.951Z,52.20
2023-01-08T12:48:24.958Z,37.40
2023-01-08T12:51:00.036Z,37.50
2023-01-08T12:53:44.224Z,86.40
2023-01-08T12:56:49.146Z,66.90
2023-01-08T12:59:30.425Z,42.80
2023-01-08T13:02:34.563Z,32.90
2023-01-08T13:05:25.990Z,34.10
2023-01-08T13:07:54.663Z,39.50
2023-01-08T13:10:27.546Z,43.80
2023-01-08T13:12:55.515Z,31.80
2023-01-08T13:15:26.194Z,51.70
2023-01-08T13:18:07.396Z,29.30
2023-01-08T13:20:34.314Z,31.70
2023-01-08T13:23:02.938Z,28.80
2023-01-08T13:25:37.180Z,27.40
2023-01-08T13:28:22.935Z,33.20
2023-01-08T13:30:50.117Z,37.00
2023-01-08T13:33:35.411Z,51.20
2023-01-08T13:36:30.444Z,52.50
2023-01-08T13:39:06.754Z,63.60
2023-01-08T13:41:35.273Z,32.20
2023-01-08T13:44:04.460Z,26.50
2023-01-08T13:46:36.514Z,32.10
2023-01-08T13:49:23.801Z,28.50
2023-01-08T13:51:50.732Z,26.80
2023-01-08T13:54:21.133Z,21.70
2023-01-08T13:56:49.682Z,26.30
2023-01-08T13:59:21.199Z,31.40
2023-01-08T14:01:55.232Z,44.80
2023-01-08T14:04:23.170Z,40.60
2023-01-08T14:06:50.249Z,28.20
2023-01-08T14:09:23.719Z,28.10
2023-01-08T14:11:55.930Z,33.60
2023-01-08T14:14:23.223Z,35.80
2023-01-08T14:16:51.665Z,33.00
2023-01-08T14:19:23.504Z,35.90
2023-01-08T14:21:58.136Z,40.30
2023-01-08T14:24:25.488Z,39.20
2023-01-08T14:26:53.300Z,41.00
2023-01-08T14:29:21.849Z,49.90
2023-01-08T14:31:52.199Z,49.00
2023-01-08T14:34:20.203Z,47.50
2023-01-08T14:36:47.041Z,45.10
2023-01-08T14:39:22.187Z,43.80
2023-01-08T14:42:07.743Z,37.80
2023-01-08T14:44:40.461Z,38.40
2023-01-08T14:47:17.411Z,34.40
2023-01-08T14:49:47.884Z,34.40
2023-01-08T14:52:18.382Z,41.30
2023-01-08T14:54:45.561Z,42.80
2023-01-08T14:57:12.506Z,36.10
2023-01-08T14:59:39.308Z,36.60
2023-01-08T15:02:15.492Z,39.80
2023-01-08T15:04:42.554Z,49.40
2023-01-08T15:07:19.135Z,43.10
2023-01-08T15:09:55.313Z,49.30
2023-01-08T15:12:24.500Z,49.40
2023-01-08T15:14:51.529Z,43.90
2023-01-08T15:17:19.816Z,49.30
2023-01-08T15:19:54.609Z,64.30
2023-01-08T15:22:24.036Z,58.90
2023-01-08T15:25:01.801Z,46.30
2023-01-08T15:27:29.979Z,42.40
2023-01-08T15:30:00.432Z,36.80
2023-01-08T15:32:32.765Z,45.30
2023-01-08T15:34:59.854Z,38.40
2023-01-08T15:37:26.905Z,45.40
2023-01-08T15:39:53.854Z,36.00
2023-01-08T15:42:41.681Z,36.00
2023-01-08T15:45:19.591Z,37.50
2023-01-08T15:47:46.640Z,34.60
2023-01-08T15:50:13.570Z,34.20
2023-01-08T15:52:41.726Z,32.70
2023-01-08T15:55:15.672Z,30.10
2023-01-08T15:57:42.503Z,35.00
2023-01-08T16:00:12.044Z,33.70
2023-01-08T16:02:46.279Z,35.40
2023-01-08T18:21:45.323Z,37.10
2023-01-08T18:24:12.476Z,39.60
2023-01-08T18:26:39.382Z,38.70
2023-01-08T18:29:06.295Z,38.10
2023-01-08T18:31:33.298Z,42.20
2023-01-08T18:34:00.867Z,37.50
2023-01-08T18:36:27.998Z,36.40
2023-01-08T18:38:57.107Z,40.50
2023-01-08T18:44:10.281Z,39.20
2023-01-08T18:46:37.507Z,34.90
2023-01-08T18:49:04.962Z,32.20
2023-01-08T18:51:32.113Z,35.90
2023-01-08T18:53:58.914Z,33.60
2023-01-08T18:56:30.689Z,29.10
2023-01-08T18:58:57.529Z,32.30
2023-01-08T19:01:24.805Z,27.00
2023-01-08T19:03:52.098Z,30.70
2023-01-08T19:06:19.088Z,36.40
2023-01-08T19:08:45.980Z,31.60
2023-01-08T19:11:13.172Z,28.70
2023-01-08T19:13:40.436Z,28.30
2023-01-08T19:16:09.063Z,32.00
2023-01-08T19:18:36.186Z,30.70
2023-01-08T19:21:03.373Z,34.20
2023-01-08T19:23:30.897Z,37.90
2023-01-08T19:25:58.055Z,34.50
2023-01-08T19:28:24.949Z,31.30
2023-01-08T19:30:56.227Z,35.20
2023-01-08T19:33:23.178Z,31.00
2023-01-08T19:35:50.180Z,28.10
2023-01-08T19:38:17.682Z,31.60
2023-01-08T19:40:44.594Z,31.60
2023-01-08T19:43:31.437Z,28.50
2023-01-08T19:46:04.867Z,35.50
2023-01-08T19:48:32.368Z,38.80
2023-01-08T19:50:59.645Z,39.90
2023-01-08T19:53:26.611Z,33.10
2023-01-08T19:55:53.636Z,38.40
2023-01-08T19:58:23.658Z,41.70
2023-01-08T20:00:50.652Z,60.40
2023-01-08T20:03:23.685Z,63.40
2023-01-08T20:05:50.709Z,62.30
2023-01-08T20:08:18.097Z,58.80
2023-01-08T20:10:45.256Z,48.20
2023-01-08T20:13:12.471Z,49.40
2023-01-08T20:15:39.540Z,45.30
2023-01-08T20:18:06.382Z,45.10
2023-01-08T20:20:33.172Z,39.00
2023-01-08T20:23:00.045Z,40.90
2023-01-08T20:25:27.114Z,39.40
2023-01-08T20:27:54.263Z,36.00
2023-01-08T20:30:21.107Z,36.20
2023-01-08T20:32:47.872Z,45.60
2023-01-08T20:35:14.693Z,45.90
2023-01-08T20:37:41.841Z,47.90
2023-01-08T20:40:09.360Z,41.50
2023-01-08T20:42:36.249Z,40.10
2023-01-08T20:45:03.089Z,48.40
2023-01-08T20:47:30.067Z,35.30
2023-01-08T20:49:56.897Z,42.40
2023-01-08T20:52:23.664Z,47.80
2023-01-08T20:54:53.011Z,42.60
2023-01-08T20:57:20.267Z,43.80
2023-01-08T20:59:47.251Z,53.50
2023-01-08T21:02:14.326Z,42.10
2023-01-08T21:04:41.920Z,48.10
2023-01-08T21:07:09.200Z,55.00
2023-01-08T21:09:36.059Z,39.90
2023-01-08T21:12:02.992Z,49.20
2023-01-08T21:14:29.832Z,46.30
2023-01-08T21:16:56.868Z,48.50
2023-01-08T21:19:23.704Z,33.90
2023-01-08T21:21:50.727Z,55.20
2023-01-08T21:24:17.685Z,54.60
2023-01-08T21:26:44.660Z,58.70
2023-01-08T21:29:11.397Z,58.30
2023-01-08T21:31:38.993Z,73.50
2023-01-08T21:34:06.332Z,52.10
2023-01-08T21:36:33.258Z,54.90
2023-01-08T21:39:01.058Z,56.90
2023-01-08T21:41:47.241Z,47.60
2023-01-08T21:44:34.923Z,44.00
2023-01-08T21:47:02.045Z,47.50
2023-01-08T21:49:29.217Z,49.10
2023-01-08T21:52:15.024Z,44.50
2023-01-08T21:54:42.095Z,53.90
2023-01-08T21:57:09.414Z,48.80
2023-01-08T21:59:36.298Z,52.00
2023-01-08T22:02:03.546Z,65.00
2023-01-08T22:04:30.465Z,68.30
2023-01-08T22:06:57.501Z,51.90
2023-01-08T22:09:24.439Z,67.10
2023-01-08T22:11:51.384Z,64.10
2023-01-08T22:14:18.244Z,57.20
2023-01-08T22:16:45.069Z,57.30
2023-01-08T22:19:11.931Z,51.20
2023-01-08T22:21:39.063Z,57.60
2023-01-08T22:24:06.665Z,56.00
2023-01-08T22:26:35.243Z,42.00
2023-01-08T22:29:03.322Z,42.80
2023-01-08T22:31:30.374Z,52.40
2023-01-08T22:33:57.371Z,56.20
2023-01-08T22:36:24.289Z,60.00
2023-01-08T22:38:51.108Z,60.40
2023-01-08T22:41:21.120Z,46.90
2023-01-08T22:43:48.120Z,40.50
2023-01-08T22:46:16.386Z,42.20
2023-01-08T22:48:43.721Z,42.00
2023-01-08T22:51:10.810Z,41.10
2023-01-08T22:53:37.620Z,48.20
2023-01-08T22:56:12.276Z,35.00
2023-01-08T22:58:40.620Z,41.00
2023-01-08T23:01:15.152Z,35.50
2023-01-08T23:03:44.181Z,33.80
2023-01-08T23:08:42.152Z,38.70
2023-01-08T23:11:09.825Z,39.70
2023-01-08T23:13:36.914Z,50.30
2023-01-08T23:16:04.637Z,48.10
2023-01-08T23:18:31.425Z,46.60
2023-01-08T23:21:06.331Z,48.40
2023-01-08T23:23:33.248Z,80.00
2023-01-08T23:26:07.952Z,67.60
2023-01-08T23:28:34.788Z,58.50
2023-01-08T23:31:01.566Z,63.00
2023-01-08T23:33:28.320Z,64.50
2023-01-08T23:35:55.231Z,62.50
2023-01-08T23:38:22.075Z,58.80
2023-01-08T23:40:48.956Z,52.60
2023-01-08T23:43:15.781Z,49.50
2023-01-08T23:45:42.564Z,38.90
2023-01-08T23:48:09.467Z,37.70
2023-01-08T23:50:36.269Z,47.40
2023-01-08T23:53:03.331Z,52.40
2023-01-08T23:55:30.149Z,35.10
2023-01-08T23:57:57.128Z,35.20
